createdAt,value
2022-08-17T00:02:21.198Z,11.23
2022-08-17T00:05:32.749Z,10.48
2022-08-17T00:08:18.054Z,12.30
2022-08-17T00:11:12.410Z,9.45
2022-08-17T00:14:24.922Z,9.30
2022-08-17T00:17:38.564Z,11.02
2022-08-17T00:20:30.379Z,8.23
2022-08-17T00:23:49.440Z,11.60
2022-08-17T00:27:00.947Z,9.40
2022-08-17T00:30:01.861Z,7.85
2022-08-17T00:33:23.148Z,12.18
2022-08-17T00:36:33.572Z,10.00
2022-08-17T00:39:16.082Z,8.88
2022-08-17T00:41:56.889Z,12.80
2022-08-17T00:44:36.241Z,10.73
2022-08-17T00:47:34.730Z,12.45
2022-08-17T00:50:21.849Z,12.38
2022-08-17T00:52:56.516Z,11.13
2022-08-17T00:55:49.824Z,8.93
2022-08-17T00:58:28.770Z,12.87
2022-08-17T01:01:08.796Z,9.52
2022-08-17T01:03:49.524Z,11.13
2022-08-17T01:06:28.764Z,14.27
2022-08-17T01:09:26.217Z,9.98
2022-08-17T01:11:58.799Z,11.90
2022-08-17T01:14:37.026Z,14.90
2022-08-17T01:17:16.471Z,10.48
2022-08-17T01:20:03.662Z,9.40
2022-08-17T01:22:37.475Z,11.15
2022-08-17T01:25:11.277Z,9.13
2022-08-17T01:27:46.313Z,8.60
2022-08-17T01:30:56.731Z,12.88
2022-08-17T01:33:34.165Z,11.52
2022-08-17T01:36:31.522Z,11.95
2022-08-17T01:39:36.051Z,10.13
2022-08-17T01:42:39.144Z,11.25
2022-08-17T01:45:23.391Z,10.82
2022-08-17T01:48:05.187Z,10.68
2022-08-17T01:50:47.953Z,9.63
2022-08-17T01:54:05.912Z,11.32
2022-08-17T01:56:33.917Z,11.10
2022-08-17T02:02:30.397Z,10.88
2022-08-17T02:05:52.197Z,10.43
2022-08-17T02:08:38.954Z,12.07
2022-08-17T02:11:48.352Z,11.32
2022-08-17T02:14:23.793Z,12.98
2022-08-17T02:19:46.355Z,15.05
2022-08-17T02:22:30.039Z,13.20
2022-08-17T02:25:02.153Z,12.00
2022-08-17T02:27:39.842Z,10.00
2022-08-17T02:31:01.105Z,11.10
2022-08-17T02:33:42.793Z,11.98
2022-08-17T02:37:15.542Z,11.73
2022-08-17T02:39:22.020Z,12.80
2022-08-17T02:45:18.779Z,11.38
2022-08-17T02:48:00.256Z,13.57
2022-08-17T02:50:46.565Z,12.73
2022-08-17T02:53:23.451Z,13.05
2022-08-17T02:56:02.656Z,10.85
2022-08-17T02:58:41.807Z,11.38
2022-08-17T03:01:14.643Z,9.05
2022-08-17T03:04:01.483Z,13.85
2022-08-17T03:07:23.540Z,12.07
2022-08-17T03:10:02.257Z,9.52
2022-08-17T03:12:44.639Z,11.98
2022-08-17T03:17:58.530Z,11.80
2022-08-17T03:20:26.288Z,9.35
2022-08-17T03:22:55.062Z,10.70
2022-08-17T03:25:31.664Z,12.52
2022-08-17T03:28:06.597Z,8.98
2022-08-17T03:30:41.293Z,16.35
2022-08-17T03:33:11.451Z,11.45
2022-08-17T03:35:40.570Z,10.18
2022-08-17T03:38:17.338Z,11.98
2022-08-17T03:40:56.464Z,9.70
2022-08-17T03:43:30.148Z,14.07
2022-08-17T03:46:28.810Z,12.50
2022-08-17T03:49:23.732Z,14.73
2022-08-17T03:52:09.221Z,15.23
2022-08-17T03:54:55.106Z,12.15
2022-08-17T03:57:27.994Z,10.18
2022-08-17T03:59:57.905Z,11.90
2022-08-17T04:02:35.057Z,12.35
2022-08-17T04:05:02.687Z,13.65
2022-08-17T04:07:33.697Z,11.10
2022-08-17T04:10:01.212Z,8.45
2022-08-17T04:12:31.320Z,10.90
2022-08-17T04:14:58.691Z,10.90
2022-08-17T04:17:29.929Z,11.10
2022-08-17T04:19:58.997Z,12.55
2022-08-17T04:22:30.773Z,10.63
2022-08-17T04:25:01.673Z,9.80
2022-08-17T04:27:28.867Z,9.02
2022-08-17T04:30:13.710Z,13.00
2022-08-17T04:33:05.366Z,9.35
2022-08-17T04:35:51.247Z,8.48
2022-08-17T04:38:35.526Z,11.75
2022-08-17T04:41:22.948Z,12.15
2022-08-17T04:43:50.464Z,10.02
2022-08-17T04:46:24.378Z,11.73
2022-08-17T04:48:53.795Z,8.50
2022-08-17T04:51:45.531Z,9.85
2022-08-17T04:54:24.817Z,12.52
2022-08-17T04:56:54.576Z,9.45
2022-08-17T04:59:27.336Z,10.52
2022-08-17T05:01:57.595Z,10.77
2022-08-17T05:04:34.153Z,11.57
2022-08-17T05:07:02.681Z,13.52
2022-08-17T05:09:29.784Z,18.23
2022-08-17T05:12:00.459Z,11.57
2022-08-17T05:14:32.951Z,15.60
2022-08-17T05:17:11.620Z,12.60
2022-08-17T05:19:38.873Z,11.18
2022-08-17T05:22:09.199Z,14.60
2022-08-17T05:24:43.711Z,10.65
2022-08-17T05:27:20.809Z,10.93
2022-08-17T05:29:49.455Z,16.75
2022-08-17T05:32:39.006Z,12.88
2022-08-17T05:35:10.707Z,10.82
2022-08-17T05:37:40.162Z,10.43
2022-08-17T05:40:13.636Z,14.48
2022-08-17T05:42:44.021Z,16.05
2022-08-17T05:45:13.980Z,11.50
2022-08-17T05:47:41.074Z,12.93
2022-08-17T05:50:12.784Z,15.18
2022-08-17T05:53:39.558Z,15.55
2022-08-17T05:56:39.799Z,12.35
2022-08-17T05:59:21.778Z,15.30
2022-08-17T06:02:12.167Z,15.13
2022-08-17T06:04:51.048Z,12.85
2022-08-17T06:08:11.931Z,16.42
2022-08-17T06:21:12.707Z,11.63
2022-08-17T06:23:57.018Z,13.95
2022-08-17T06:26:39.696Z,13.57
2022-08-17T06:29:35.700Z,16.55
2022-08-17T06:36:25.726Z,17.55
2022-08-17T06:43:02.190Z,27.77
2022-08-17T06:49:55.662Z,41.20
2022-08-17T06:52:45.990Z,36.83
2022-08-17T07:06:17.044Z,49.00
2022-08-17T07:08:57.647Z,44.30
2022-08-17T07:12:52.814Z,40.35
2022-08-17T07:15:24.907Z,35.08
2022-08-17T07:19:01.377Z,38.30
2022-08-17T07:32:03.305Z,38.97
2022-08-17T07:41:53.439Z,33.22
2022-08-17T07:45:16.177Z,39.25
2022-08-17T07:48:56.011Z,36.88
2022-08-17T07:55:23.636Z,38.47
2022-08-17T07:58:05.146Z,35.90
2022-08-17T08:08:20.982Z,39.35
2022-08-17T08:11:09.640Z,36.90
2022-08-17T08:13:42.867Z,36.13
2022-08-17T08:16:27.406Z,41.00
2022-08-17T08:18:57.991Z,38.05
2022-08-17T08:21:57.635Z,45.33
2022-08-17T08:24:41.464Z,38.50
2022-08-17T08:30:01.183Z,45.55
2022-08-17T08:39:02.666Z,37.85
2022-08-17T08:41:51.522Z,33.95
2022-08-17T08:45:00.323Z,35.28
2022-08-17T08:47:42.076Z,38.25
2022-08-17T08:50:37.645Z,35.35
2022-08-17T08:53:32.442Z,30.52
2022-08-17T08:56:06.920Z,35.13
2022-08-17T08:58:57.318Z,30.35
2022-08-17T09:01:38.275Z,28.90
2022-08-17T09:04:24.112Z,29.88
2022-08-17T09:07:05.221Z,28.35
2022-08-17T09:09:47.349Z,31.17
2022-08-17T09:12:22.485Z,27.05
2022-08-17T09:15:02.211Z,27.50
2022-08-17T09:19:00.310Z,26.63
2022-08-17T09:23:51.793Z,30.65
2022-08-17T09:26:41.199Z,30.48
2022-08-17T09:29:24.342Z,31.70
2022-08-17T09:32:10.257Z,35.92
2022-08-17T09:35:13.271Z,33.10
2022-08-17T09:38:11.848Z,28.52
2022-08-17T09:40:40.493Z,30.10
2022-08-17T09:43:37.988Z,26.73
2022-08-17T09:46:19.059Z,32.05
2022-08-17T09:49:16.038Z,26.27
2022-08-17T09:52:01.312Z,23.17
2022-08-17T09:54:48.118Z,26.20
2022-08-17T09:57:39.212Z,26.52
2022-08-17T10:00:29.762Z,25.95
2022-08-17T10:03:20.960Z,23.48
2022-08-17T10:06:21.789Z,22.52
2022-08-17T10:09:29.709Z,21.33
2022-08-17T10:12:47.037Z,24.50
2022-08-17T10:15:27.945Z,25.92
2022-08-17T10:18:42.533Z,21.05
2022-08-17T10:21:32.433Z,19.35
2022-08-17T10:25:02.050Z,20.27
2022-08-17T10:27:51.698Z,29.33
2022-08-17T10:30:28.104Z,20.10
2022-08-17T10:33:04.932Z,23.02
2022-08-17T10:36:32.510Z,16.30
2022-08-17T10:39:23.210Z,17.73
2022-08-17T10:41:52.842Z,21.65
2022-08-17T10:44:44.480Z,18.80
2022-08-17T10:47:17.049Z,21.08
2022-08-17T10:49:54.478Z,21.30
2022-08-17T10:52:33.124Z,17.02
2022-08-17T10:55:12.270Z,15.88
2022-08-17T10:57:50.389Z,16.83
2022-08-17T11:00:29.698Z,12.05
2022-08-17T11:03:01.117Z,16.60
2022-08-17T11:05:46.530Z,19.65
2022-08-17T11:08:50.315Z,17.67
2022-08-17T11:11:37.031Z,21.85
2022-08-17T11:14:35.223Z,15.60
2022-08-17T11:17:31.378Z,17.77
2022-08-17T11:20:28.725Z,15.38
2022-08-17T11:23:28.729Z,17.63
2022-08-17T11:26:04.295Z,17.80
2022-08-17T11:28:59.801Z,17.23
2022-08-17T11:31:39.957Z,14.55
2022-08-17T11:34:32.470Z,23.88
2022-08-17T11:37:33.617Z,14.93
2022-08-17T11:40:29.578Z,14.35
2022-08-17T11:43:19.932Z,14.25
2022-08-17T11:46:17.592Z,14.95
2022-08-17T11:49:07.326Z,15.00
2022-08-17T11:52:23.933Z,17.52
2022-08-17T11:55:00.257Z,12.57
2022-08-17T11:57:46.367Z,11.25
2022-08-17T12:00:49.801Z,12.55
2022-08-17T12:03:38.212Z,12.52
2022-08-17T12:06:31.166Z,10.77
2022-08-17T12:09:30.922Z,8.55
2022-08-17T12:12:12.800Z,11.27
2022-08-17T12:17:40.615Z,11.07
2022-08-17T12:20:36.284Z,13.25
2022-08-17T12:23:26.303Z,9.27
2022-08-17T12:26:02.372Z,9.50
2022-08-17T12:28:30.458Z,17.55
2022-08-17T12:31:11.214Z,15.55
2022-08-17T12:33:41.061Z,14.45
2022-08-17T12:36:11.243Z,8.65
2022-08-17T12:38:42.407Z,8.40
2022-08-17T12:41:30.695Z,9.13
2022-08-17T12:47:03.445Z,11.50
2022-08-17T12:49:35.735Z,10.98
2022-08-17T12:52:27.774Z,7.53
2022-08-17T12:55:03.849Z,8.40
2022-08-17T12:57:35.231Z,10.15
2022-08-17T13:00:16.044Z,12.57
2022-08-17T13:02:53.283Z,10.57
2022-08-17T13:05:43.793Z,9.50
2022-08-17T13:08:24.382Z,11.45
2022-08-17T13:11:14.887Z,10.30
2022-08-17T13:13:51.010Z,12.73
2022-08-17T13:16:30.070Z,12.50
2022-08-17T13:19:39.811Z,14.50
2022-08-17T13:22:13.623Z,12.63
2022-08-17T13:24:41.285Z,8.55
2022-08-17T13:27:15.228Z,15.50
2022-08-17T13:29:45.312Z,9.75
2022-08-17T13:32:23.130Z,7.35
2022-08-17T13:35:11.857Z,6.63
2022-08-17T13:37:45.647Z,11.35
2022-08-17T13:42:53.981Z,7.93
2022-08-17T13:45:40.253Z,9.35
2022-08-17T13:48:33.049Z,11.05
2022-08-17T13:51:05.015Z,10.00
2022-08-17T13:53:40.144Z,10.00
2022-08-17T13:56:37.037Z,10.15
2022-08-17T13:59:16.471Z,6.75
2022-08-17T14:01:54.124Z,10.02
2022-08-17T14:04:33.450Z,9.35
2022-08-17T14:07:20.012Z,12.52
2022-08-17T14:10:24.064Z,11.43
2022-08-17T14:15:55.884Z,9.18
2022-08-17T14:18:31.135Z,13.88
2022-08-17T14:21:17.900Z,8.30
2022-08-17T14:23:52.686Z,7.18
2022-08-17T14:26:52.453Z,8.68
2022-08-17T14:29:17.429Z,5.07
2022-08-17T14:31:54.502Z,9.25
2022-08-17T14:34:29.366Z,8.20
2022-08-17T14:37:01.912Z,4.03
2022-08-17T14:39:32.944Z,4.22
2022-08-17T14:42:03.268Z,9.32
2022-08-17T14:44:39.656Z,8.90
2022-08-17T14:47:07.959Z,6.03
2022-08-17T14:49:37.472Z,9.15
2022-08-17T14:52:04.892Z,7.40
2022-08-17T14:54:45.711Z,8.02
2022-08-17T14:57:25.823Z,5.45
2022-08-17T15:00:01.144Z,6.00
2022-08-17T15:02:31.774Z,6.63
2022-08-17T15:05:04.446Z,6.32
2022-08-17T15:07:34.236Z,6.43
2022-08-17T15:10:20.356Z,7.95
2022-08-17T15:12:50.009Z,5.18
2022-08-17T15:15:18.007Z,7.95
2022-08-17T15:17:46.163Z,6.18
2022-08-17T15:20:30.805Z,3.78
2022-08-17T15:22:59.346Z,9.05
2022-08-17T15:25:32.002Z,5.60
2022-08-17T15:28:09.252Z,5.25
2022-08-17T15:30:44.534Z,5.63
2022-08-17T15:33:18.940Z,5.25
2022-08-17T15:35:53.646Z,7.75
2022-08-17T15:38:23.183Z,5.55
2022-08-17T15:40:51.247Z,8.38
2022-08-17T15:43:28.455Z,11.63
2022-08-17T15:46:03.827Z,5.90
2022-08-17T15:48:44.014Z,9.05
2022-08-17T15:51:25.836Z,10.60
2022-08-17T15:54:04.557Z,5.35
2022-08-17T15:56:47.065Z,4.15
2022-08-17T15:59:14.447Z,5.40
2022-08-17T16:03:13.944Z,9.27
2022-08-17T16:05:24.151Z,6.18
2022-08-17T16:08:07.339Z,3.38
2022-08-17T16:14:37.012Z,4.20
2022-08-17T16:17:05.052Z,3.30
2022-08-17T16:57:14.012Z,4.47
2022-08-17T16:59:51.221Z,3.30
2022-08-17T17:03:38.318Z,3.00
2022-08-17T17:10:07.441Z,3.85
2022-08-17T17:41:11.447Z,8.15
2022-08-17T17:43:44.685Z,3.63
2022-08-17T17:46:55.724Z,4.70
2022-08-17T17:49:31.338Z,6.22
2022-08-17T17:52:21.537Z,5.35
2022-08-17T18:03:27.266Z,5.82
2022-08-17T18:06:24.878Z,6.25
2022-08-17T18:09:26.338Z,5.07
2022-08-17T18:13:53.272Z,5.65
2022-08-17T18:16:44.260Z,5.75
2022-08-17T18:24:07.723Z,7.20
2022-08-17T18:30:09.496Z,6.10
2022-08-17T18:32:54.697Z,6.30
2022-08-17T18:35:49.105Z,9.80
2022-08-17T18:38:55.445Z,5.50
2022-08-17T18:44:38.466Z,11.02
2022-08-17T18:47:36.452Z,8.88
2022-08-17T18:50:29.134Z,7.40
2022-08-17T18:53:06.704Z,6.93
2022-08-17T18:59:58.798Z,5.90
2022-08-17T19:02:46.025Z,6.88
2022-08-17T19:08:49.146Z,6.90
2022-08-17T19:15:29.177Z,10.40
2022-08-17T19:18:55.046Z,6.22
2022-08-17T19:22:00.304Z,7.40
2022-08-17T19:24:50.084Z,10.93
2022-08-17T19:27:41.684Z,8.90
2022-08-17T19:30:16.242Z,6.68
2022-08-17T19:36:27.120Z,6.80
2022-08-17T19:43:13.827Z,5.80
2022-08-17T19:51:19.911Z,5.95
2022-08-17T19:55:20.247Z,4.53
2022-08-17T20:00:30.523Z,7.38
2022-08-17T20:03:46.360Z,9.18
2022-08-17T20:06:31.228Z,9.15
2022-08-17T20:09:15.214Z,7.63
2022-08-17T20:11:49.992Z,7.50
2022-08-17T20:14:31.551Z,7.40
2022-08-17T20:17:11.362Z,7.20
2022-08-17T20:20:25.390Z,7.57
2022-08-17T20:23:38.416Z,6.18
2022-08-17T20:26:33.029Z,6.97
2022-08-17T20:29:57.875Z,12.82
2022-08-17T20:35:50.791Z,5.50
2022-08-17T20:39:04.145Z,7.28
2022-08-17T21:03:21.202Z,9.40
2022-08-17T21:10:20.649Z,8.38
2022-08-17T21:13:34.195Z,6.32
2022-08-17T21:16:48.861Z,6.85
2022-08-17T21:23:42.270Z,7.18
2022-08-17T21:26:50.839Z,8.02
2022-08-17T21:37:09.380Z,9.18
2022-08-17T21:40:09.082Z,8.32
2022-08-17T21:47:21.633Z,8.18
2022-08-17T21:57:53.142Z,7.88
2022-08-17T22:04:24.915Z,9.40
2022-08-17T22:14:54.273Z,7.25
2022-08-17T22:18:45.857Z,6.50
2022-08-17T22:22:08.503Z,9.98
2022-08-17T22:29:24.242Z,7.75
2022-08-17T22:37:43.689Z,11.00
2022-08-17T22:41:36.838Z,7.38
2022-08-17T22:46:01.710Z,6.90
2022-08-17T22:48:14.929Z,6.70
2022-08-17T22:51:36.074Z,6.82
2022-08-17T22:57:59.374Z,7.93
2022-08-17T23:01:48.425Z,14.57
2022-08-17T23:04:51.796Z,6.75
2022-08-17T23:12:46.411Z,5.88
2022-08-17T23:14:40.413Z,8.88
2022-08-17T23:17:40.326Z,14.45
2022-08-17T23:25:16.087Z,11.40
2022-08-17T23:28:35.569Z,5.10
2022-08-17T23:42:16.175Z,7.03
